• Join FlightAware (Why Join?)
  • Login
  • US Flag 
03:16PM EDT


 

Airport Tracker/Info


-or-


 

Live Flight TrackerFlight Track Log ✈ SWA60 ✈ 10-May-2013 ✈ KPDX - KPHX

Flight Track Log - Related Links

Times and Time Zones

All times are in EDT time to prevent confusion due to time zone crossing. See the SWA60 flight status page for this flight to view local times or setup timezone preferences in your user account.

Time Position Orientation Groundspeed Altitude Reporting Facility
EDT Latitude Longitude Course Direction KTS MPH feet Rate Location/Type
03:45PM 45.5978 -122.6056 293° West 167 192 700  Level Seattle Center
03:46PM 45.6122 -122.6553 293° West 190 219 2,200 2,340 Climbing Seattle Center
03:47PM 45.6403 -122.7303 298° West 247 284 4,500 2,640 Climbing Seattle Center
03:48PM 45.6131 -122.8000 241° Southwest 249 287 7,300 2,400 Climbing Seattle Center
03:49PM 45.5628 -122.7328 137° Southeast 266 306 9,900 2,220 Climbing Seattle Center
03:50PM 45.5131 -122.6089 120° Southeast 296 341 12,300 2,160 Climbing Seattle Center
03:51PM 45.4658 -122.4900 119° Southeast 336 387 14,300 2,040 Climbing Seattle Center
03:52PM 45.4150 -122.3656 120° Southeast 358 412 16,500 1,980 Climbing Seattle Center
03:53PM 45.3614 -122.2350 120° Southeast 376 433 18,400 1,860 Climbing Seattle Center
03:54PM 45.3061 -122.1019 121° Southeast 387 445 20,300 1,740 Climbing Seattle Center
03:55PM 45.2492 -121.9667 121° Southeast 397 457 22,000 1,620 Climbing Seattle Center
03:56PM 45.1750 -121.8364 129° Southeast 411 473 23,700 1,440 Climbing Seattle Center
03:57PM 45.1006 -121.7069 129° Southeast 423 487 25,000 1,200 Climbing Seattle Center
03:58PM 45.0228 -121.5747 130° Southeast 437 503 26,200 1,080 Climbing Seattle Center
03:59PM 44.9439 -121.4383 129° Southeast 449 517 27,200 1,140 Climbing Seattle Center
04:00PM 44.8497 -121.3192 138° Southeast 457 526 28,600 1,140 Climbing Seattle Center
04:02PM 44.7492 -121.2039 141° Southeast 464 534 29,600 1,200 Climbing Seattle Center
04:03PM 44.6511 -121.0892 140° Southeast 464 534 31,100 1,440 Climbing Seattle Center
04:04PM 44.5325 -120.9525 141° Southeast 461 531 32,600 1,140 Climbing Seattle Center
04:05PM 44.4325 -120.8392 141° Southeast 458 527 33,500 780 Climbing Seattle Center
04:06PM 44.3353 -120.7283 141° Southeast 461 531 34,200 720 Climbing Seattle Center
04:07PM 44.2353 -120.6150 141° Southeast 465 535 35,000 360 Climbing Seattle Center
04:08PM 44.1342 -120.5011 141° Southeast 468 539 35,000  Level Seattle Center
04:09PM 44.0317 -120.3861 141° Southeast 473 544 35,000  Level Seattle Center
04:10PM 43.9306 -120.2736 141° Southeast 470 541 35,000  Level Seattle Center
04:11PM 43.8297 -120.1600 141° Southeast 469 540 35,000  Level Seattle Center
04:12PM 43.7275 -120.0494 142° Southeast 470 541 35,000  Level Seattle Center
04:13PM 43.6272 -119.9400 142° Southeast 463 533 35,000  Level Seattle Center
04:14PM 43.5064 -119.8069 141° Southeast 465 535 35,000  Level Seattle Center
04:15PM 43.4081 -119.6964 141° Southeast 460 529 35,000  Level Seattle Center
04:16PM 43.3083 -119.5928 143° Southeast 454 522 35,000  Level Seattle Center
04:17PM 43.2192 -119.4961 142° Southeast 453 521 35,000  Level Seattle Center
04:18PM 43.1183 -119.3881 142° Southeast 458 527 35,000  Level Seattle Center
04:19PM 43.0053 -119.2642 141° Southeast 462 532 35,000  Level Seattle Center
04:20PM 42.9092 -119.1631 142° Southeast 459 528 35,000  Level Seattle Center
04:21PM 42.7969 -119.0431 142° Southeast 460 529 35,000  Level Seattle Center
04:22PM 42.7031 -118.9431 142° Southeast 453 521 35,000  Level Seattle Center
04:23PM 42.5914 -118.8253 142° Southeast 453 521 35,000  Level Seattle Center
04:24PM 42.4947 -118.7250 143° Southeast 457 526 35,000  Level Seattle Center
04:25PM 42.3936 -118.6208 143° Southeast 462 532 35,000  Level Seattle Center
04:26PM 42.2603 -118.4811 142° Southeast 458 527 35,000  Level Salt Lake Center
04:27PM 42.1631 -118.3806 143° Southeast 460 529 35,000  Level Salt Lake Center
04:28PM 42.0658 -118.2789 142° Southeast 461 531 35,000  Level Salt Lake Center
04:29PM 41.9631 -118.1467 136° Southeast 458 527 35,000  Level Salt Lake Center
04:30PM 41.8733 -118.0350 137° Southeast 458 527 35,000  Level Salt Lake Center
04:31PM 41.7697 -117.9033 137° Southeast 460 529 35,000  Level Salt Lake Center
04:32PM 41.6800 -117.7931 137° Southeast 457 526 35,000  Level Salt Lake Center
04:33PM 41.5900 -117.6822 137° Southeast 458 527 35,000  Level Salt Lake Center
04:34PM 41.4853 -117.5550 138° Southeast 457 526 35,000  Level Salt Lake Center
04:35PM 41.3956 -117.4436 137° Southeast 459 528 35,000  Level Salt Lake Center
04:36PM 41.2892 -117.3150 138° Southeast 460 529 35,000  Level Salt Lake Center
04:37PM 41.1994 -117.2053 137° Southeast 459 528 35,000  Level Salt Lake Center
04:38PM 41.1103 -117.0961 137° Southeast 455 524 35,000  Level Salt Lake Center
04:39PM 41.0044 -116.9683 138° Southeast 459 528 35,000  Level Salt Lake Center
04:41PM 40.9136 -116.8586 138° Southeast 459 528 35,000  Level Salt Lake Center
04:42PM 40.8044 -116.7308 138° Southeast 464 534 35,000  Level Salt Lake Center
04:43PM 40.7122 -116.6194 138° Southeast 465 535 35,000  Level Salt Lake Center
04:44PM 40.6189 -116.5094 138° Southeast 467 537 35,000  Level Salt Lake Center
04:45PM 40.5097 -116.3808 138° Southeast 469 540 35,000  Level Salt Lake Center
04:46PM 40.4153 -116.2706 138° Southeast 470 541 35,000  Level Salt Lake Center
04:47PM 40.3222 -116.1606 138° Southeast 468 539 35,000  Level Salt Lake Center
04:48PM 40.2136 -116.0344 138° Southeast 468 539 35,000  Level Salt Lake Center
04:49PM 40.1222 -115.9253 138° Southeast 465 535 35,000  Level Salt Lake Center
04:50PM 40.0139 -115.8017 139° Southeast 462 532 35,000  Level Salt Lake Center
04:51PM 39.9203 -115.6956 139° Southeast 463 533 35,000  Level Salt Lake Center
04:52PM 39.8128 -115.5739 139° Southeast 460 529 35,000  Level Salt Lake Center
04:53PM 39.7211 -115.4689 139° Southeast 458 527 35,000  Level Salt Lake Center
04:54PM 39.6314 -115.3636 138° Southeast 454 522 35,000  Level Salt Lake Center
04:55PM 39.5258 -115.2433 139° Southeast 453 521 35,000  Level Salt Lake Center
04:56PM 39.4342 -115.1386 139° Southeast 456 525 35,000  Level Salt Lake Center
04:57PM 39.3233 -115.0217 141° Southeast 460 529 35,000  Level Salt Lake Center
04:58PM 39.2306 -114.9183 139° Southeast 460 529 35,000  Level Salt Lake Center
04:59PM 39.1436 -114.8175 138° Southeast 453 521 35,000  Level Salt Lake Center
05:00PM 39.0281 -114.6900 139° Southeast 457 526 35,000  Level Salt Lake Center
05:01PM 38.9347 -114.5822 138° Southeast 454 522 35,000  Level Salt Lake Center
05:02PM 38.8403 -114.4778 139° Southeast 450 518 35,000  Level Salt Lake Center
05:03PM 38.7450 -114.3744 140° Southeast 449 517 35,000  Level Salt Lake Center
05:04PM 38.6508 -114.2719 140° Southeast 447 514 35,000  Level Salt Lake Center
05:05PM 38.5578 -114.1700 139° Southeast 442 509 35,000  Level Salt Lake Center
05:06PM 38.4639 -114.0678 140° Southeast 443 510 35,000  Level Salt Lake Center
05:07PM 38.3703 -113.9675 140° Southeast 442 509 35,000  Level Salt Lake Center
05:08PM 38.2558 -113.8478 141° Southeast 443 510 35,000  Level Salt Lake Center
05:09PM 38.1642 -113.7469 139° Southeast 439 505 35,000  Level Salt Lake Center
05:10PM 38.0703 -113.6483 140° Southeast 438 504 35,000  Level Salt Lake Center
05:11PM 37.9767 -113.5483 140° Southeast 442 509 35,000  Level Salt Lake Center
05:12PM 37.8747 -113.4661 148° Southeast 437 503 35,000  Level Salt Lake Center
05:13PM 37.7650 -113.3983 154° Southeast 441 507 35,000  Level Salt Lake Center
05:14PM 37.6344 -113.3194 154° Southeast 437 503 35,000  Level Salt Lake Center
05:15PM 37.5272 -113.2561 155° Southeast 432 497 35,000  Level Salt Lake Center
05:16PM 37.4203 -113.1892 154° Southeast 434 499 35,000  Level Salt Lake Center
05:17PM 37.3139 -113.1247 154° Southeast 431 496 35,000  Level Salt Lake Center
05:19PM 37.2064 -113.0606 155° Southeast 431 496 35,000 -300 Level Salt Lake Center
05:19PM 37.1189 -113.0072 154° Southeast 435 501 34,500 -840 Descending Los Angeles Center
05:20PM 37.0047 -112.9397 155° Southeast 451 519 33,600 -780 Descending Los Angeles Center
05:21PM 36.8883 -112.8697 154° Southeast 460 529 33,000 -300 Descending Los Angeles Center
05:22PM 36.7464 -112.7869 155° Southeast 468 539 33,000  Level Los Angeles Center
05:23PM 36.6306 -112.7181 154° Southeast 464 534 33,000  Level Los Angeles Center
05:24PM 36.5153 -112.6506 155° Southeast 460 529 33,000  Level Los Angeles Center
05:25PM 36.3992 -112.5833 155° Southeast 459 528 33,000  Level Los Angeles Center
05:27PM 36.2828 -112.5142 154° Southeast 463 533 33,000 -480 Level Los Angeles Center
05:28PM 36.1658 -112.4458 155° Southeast 465 535 32,100 -1,680 Descending Los Angeles Center
05:29PM 36.0133 -112.4008 167° South 475 547 29,600 -1,500 Descending Los Angeles Center
05:30PM 35.8847 -112.4100 183° South 461 531 29,000 -300 Descending Los Angeles Center
05:31PM 35.7578 -112.4161 182° South 459 528 29,000  Level Los Angeles Center
05:32PM 35.6303 -112.4217 182° South 458 527 29,000  Level Los Angeles Center
05:33PM 35.5011 -112.4300 183° South 460 529 29,000  Level Los Angeles Center
05:34PM 35.3739 -112.4322 181° South 452 520 29,000  Level Los Angeles Center
05:35PM 35.2206 -112.4000 170° South 458 527 29,000  Level Albuquerque Center
05:36PM 35.0956 -112.3725 170° South 456 525 29,000 -540 Level Albuquerque Center
05:37PM 34.9681 -112.3461 170° South 460 529 28,000 -1,500 Descending Albuquerque Center
05:38PM 34.8211 -112.3144 170° South 452 520 26,000 -1,380 Descending Albuquerque Center
05:39PM 34.7219 -112.2928 170° South 434 499 25,200 -1,800 Descending Albuquerque Center
05:40PM 34.5839 -112.2608 169° South 423 487 22,400 -2,460 Descending Albuquerque Center
05:41PM 34.4733 -112.2372 170° South 409 471 20,200 -1,200 Descending Albuquerque Center
05:42PM 34.3711 -112.2117 168° South 386 444 20,000 -660 Descending Albuquerque Center
05:43PM 34.2714 -112.1842 167° South 371 427 18,900 -1,440 Descending Albuquerque Center
05:44PM 34.1717 -112.1581 168° South 370 426 17,100 -1,500 Descending Albuquerque Center
05:45PM 34.0781 -112.1361 169° South 354 407 15,900 -1,620 Descending Albuquerque Center
05:46PM 33.9728 -112.1067 167° South 334 384 13,900 -1,800 Descending Albuquerque Center
05:47PM 33.8878 -112.0861 169° South 321 369 12,300 -1,560 Descending Albuquerque Center
05:48PM 33.8036 -112.0639 168° South 315 362 10,700 -1,140 Descending Albuquerque Center
05:49PM 33.7231 -112.0453 169° South 304 350 10,000 -660 Descending Albuquerque Center
05:50PM 33.6461 -112.0328 172° South 286 329 9,400 -660 Descending Albuquerque Center
05:51PM 33.5614 -112.0078 166° South 266 306 8,700 -1,020 Descending Albuquerque Center
05:52PM 33.5292 -111.9406 120° Southeast 264 304 7,400 -1,200 Descending Albuquerque Center
05:53PM 33.5283 -111.8586 91° East 252 290 6,300 -1,260 Descending Albuquerque Center
05:54PM 33.4931 -111.8103 131° Southeast 245 282 4,900 -1,320 Descending Albuquerque Center
05:56PM 33.4569 -111.8678 233° Southwest 228 262 3,600 -1,140 Descending Albuquerque Center
05:57PM 33.4417 -111.9167 249° West 186 214 2,600 -1,020 Descending Albuquerque Center
05:58PM 33.4425 -111.9669 271° West 162 186 1,600 -540 Descending Albuquerque Center
05:59PM 33.3433 -112.1319 234° Southwest 245 282 1,600  Level Albuquerque Center